createdAt,value
2023-03-02T00:01:08.507Z,11.23
2023-03-02T00:03:40.664Z,11.20
2023-03-02T00:06:08.564Z,9.50
2023-03-02T00:08:36.456Z,14.68
2023-03-02T00:11:03.779Z,11.52
2023-03-02T00:13:32.060Z,12.07
2023-03-02T00:15:59.038Z,12.98
2023-03-02T00:18:26.101Z,14.18
2023-03-02T00:20:52.956Z,15.35
2023-03-02T00:23:19.951Z,11.77
2023-03-02T00:25:47.160Z,9.73
2023-03-02T00:28:14.557Z,11.93
2023-03-02T00:30:41.333Z,9.35
2023-03-02T00:33:08.251Z,10.20
2023-03-02T00:35:41.874Z,6.65
2023-03-02T00:38:09.139Z,9.98
2023-03-02T00:40:36.577Z,7.93
2023-03-02T00:43:03.669Z,7.55
2023-03-02T00:45:30.949Z,9.00
2023-03-02T00:47:57.789Z,9.15
2023-03-02T00:50:24.684Z,11.30
2023-03-02T00:52:51.525Z,7.53
2023-03-02T00:55:18.516Z,4.93
2023-03-02T00:57:45.336Z,3.70
2023-03-02T01:00:12.409Z,2.70
2023-03-02T01:02:44.328Z,1.73
2023-03-02T01:05:11.448Z,3.17
2023-03-02T01:07:38.294Z,1.63
2023-03-02T01:10:06.449Z,2.47
2023-03-02T01:12:33.800Z,3.35
2023-03-02T01:15:01.012Z,4.65
2023-03-02T01:17:28.455Z,3.50
2023-03-02T01:19:55.340Z,3.83
2023-03-02T01:22:22.744Z,4.30
2023-03-02T01:24:50.315Z,3.40
2023-03-02T01:27:17.264Z,2.22
2023-03-02T01:29:44.088Z,4.30
2023-03-02T01:32:11.321Z,3.30
2023-03-02T01:34:38.689Z,2.72
2023-03-02T01:37:05.962Z,2.67
2023-03-02T01:39:32.835Z,3.88
2023-03-02T01:42:00.129Z,3.85
2023-03-02T01:44:57.394Z,3.78
2023-03-02T01:47:39.037Z,4.05
2023-03-02T01:50:23.154Z,3.22
2023-03-02T01:52:50.922Z,5.05
2023-03-02T01:55:24.780Z,3.50
2023-03-02T01:57:54.696Z,3.72
2023-03-02T02:00:29.557Z,3.72
2023-03-02T02:03:09.063Z,5.25
2023-03-02T02:05:42.236Z,6.80
2023-03-02T02:08:09.734Z,6.57
2023-03-02T02:10:37.317Z,9.55
2023-03-02T02:13:04.189Z,11.05
2023-03-02T02:15:31.160Z,11.35
2023-03-02T02:17:57.957Z,11.30
2023-03-02T02:20:36.836Z,10.95
2023-03-02T02:23:12.467Z,12.55
2023-03-02T02:25:47.470Z,8.05
2023-03-02T02:28:21.305Z,14.15
2023-03-02T02:30:51.976Z,11.32
2023-03-02T02:33:23.910Z,11.25
2023-03-02T02:35:55.929Z,15.70
2023-03-02T02:38:24.674Z,13.20
2023-03-02T02:40:56.591Z,15.20
2023-03-02T02:43:24.123Z,14.32
2023-03-02T02:45:54.372Z,15.18
2023-03-02T02:48:25.051Z,12.43
2023-03-02T02:51:00.896Z,12.90
2023-03-02T02:53:42.787Z,12.18
2023-03-02T02:56:11.820Z,14.88
2023-03-02T02:58:51.675Z,9.38
2023-03-02T03:01:25.434Z,9.65
2023-03-02T03:03:59.216Z,8.25
2023-03-02T03:06:38.177Z,10.13
2023-03-02T03:09:10.804Z,8.82
2023-03-02T03:11:42.406Z,9.00
2023-03-02T03:14:12.928Z,8.18
2023-03-02T03:16:42.090Z,9.15
2023-03-02T03:19:22.708Z,8.63
2023-03-02T03:21:53.304Z,9.90
2023-03-02T03:24:21.530Z,7.88
2023-03-02T03:26:49.636Z,8.60
2023-03-02T03:29:17.846Z,9.23
2023-03-02T03:31:45.256Z,10.50
2023-03-02T03:34:12.156Z,10.82
2023-03-02T03:36:39.076Z,14.10
2023-03-02T03:39:06.449Z,16.08
2023-03-02T03:41:33.551Z,12.57
2023-03-02T03:44:00.850Z,15.00
2023-03-02T03:46:29.039Z,13.50
2023-03-02T03:48:57.179Z,13.07
2023-03-02T03:51:25.790Z,17.27
2023-03-02T03:54:02.099Z,11.13
2023-03-02T03:56:35.389Z,15.80
2023-03-02T03:59:06.537Z,14.40
2023-03-02T04:01:42.246Z,15.60
2023-03-02T04:04:15.113Z,15.05
2023-03-02T04:06:42.348Z,15.00
2023-03-02T04:09:09.363Z,16.70
2023-03-02T04:11:40.012Z,14.43
2023-03-02T04:14:08.234Z,14.32
2023-03-02T04:16:36.811Z,15.10
2023-03-02T04:19:09.475Z,11.55
2023-03-02T04:21:42.369Z,11.57
2023-03-02T04:24:09.919Z,11.65
2023-03-02T04:26:38.245Z,8.90
2023-03-02T04:29:05.928Z,9.95
2023-03-02T04:31:32.842Z,10.23
2023-03-02T04:34:00.224Z,12.95
2023-03-02T04:36:27.591Z,11.52
2023-03-02T04:38:54.482Z,14.98
2023-03-02T04:41:21.802Z,18.42
2023-03-02T04:43:49.044Z,19.13
2023-03-02T04:46:20.270Z,26.60
2023-03-02T04:48:47.073Z,23.83
2023-03-02T04:51:24.091Z,23.50
2023-03-02T04:53:56.796Z,18.60
2023-03-02T04:56:23.814Z,18.15
2023-03-02T04:58:50.786Z,20.50
2023-03-02T05:01:18.835Z,19.73
2023-03-02T05:03:46.468Z,15.75
2023-03-02T05:06:13.537Z,16.70
2023-03-02T05:08:41.124Z,13.20
2023-03-02T05:11:08.763Z,15.45
2023-03-02T05:13:35.871Z,14.10
2023-03-02T05:16:03.167Z,14.38
2023-03-02T05:18:31.246Z,13.65
2023-03-02T05:20:58.153Z,10.18
2023-03-02T05:23:25.895Z,13.35
2023-03-02T05:25:55.082Z,13.98
2023-03-02T05:28:24.418Z,14.00
2023-03-02T05:30:51.748Z,12.32
2023-03-02T05:33:19.532Z,10.00
2023-03-02T05:35:47.021Z,12.07
2023-03-02T05:38:14.754Z,11.20
2023-03-02T05:40:45.375Z,13.32
2023-03-02T05:43:17.386Z,11.70
2023-03-02T05:45:44.777Z,13.30
2023-03-02T05:48:13.205Z,18.30
2023-03-02T05:50:40.530Z,14.93
2023-03-02T05:53:07.611Z,15.88
2023-03-02T05:55:37.353Z,18.10
2023-03-02T05:58:11.703Z,18.23
2023-03-02T06:00:38.540Z,14.13
2023-03-02T06:03:05.446Z,14.02
2023-03-02T06:05:32.581Z,11.68
2023-03-02T06:07:59.441Z,17.38
2023-03-02T06:10:26.873Z,10.05
2023-03-02T06:12:53.776Z,13.23
2023-03-02T06:15:20.608Z,12.40
2023-03-02T06:17:48.120Z,26.42
2023-03-02T06:20:16.050Z,21.27
2023-03-02T06:22:47.034Z,16.80
2023-03-02T06:25:17.547Z,15.60
2023-03-02T06:27:45.269Z,20.65
2023-03-02T06:30:15.662Z,19.92
2023-03-02T06:32:43.043Z,73.15
2023-03-02T06:35:11.160Z,33.28
2023-03-02T06:37:38.227Z,27.08
2023-03-02T06:40:08.746Z,18.85
2023-03-02T06:42:36.314Z,17.40
2023-03-02T06:45:03.330Z,20.75
2023-03-02T06:47:30.330Z,17.77
2023-03-02T06:49:57.601Z,18.48
2023-03-02T06:52:24.484Z,28.00
2023-03-02T06:54:51.306Z,22.13
2023-03-02T06:57:18.489Z,19.33
2023-03-02T06:59:45.643Z,16.75
2023-03-02T07:02:12.825Z,22.30
2023-03-02T07:04:42.486Z,25.75
2023-03-02T07:07:09.387Z,21.35
2023-03-02T07:09:36.635Z,20.10
2023-03-02T07:12:03.597Z,16.20
2023-03-02T07:14:30.389Z,18.95
2023-03-02T07:16:57.662Z,21.65
2023-03-02T07:19:25.311Z,24.95
2023-03-02T07:21:52.173Z,19.38
2023-03-02T07:24:18.998Z,22.67
2023-03-02T07:26:46.256Z,20.30
2023-03-02T07:29:13.464Z,19.95
2023-03-02T07:31:40.731Z,21.27
2023-03-02T07:34:07.566Z,22.63
2023-03-02T07:36:34.342Z,17.48
2023-03-02T07:39:03.537Z,22.80
2023-03-02T07:41:30.438Z,25.20
2023-03-02T07:43:57.402Z,24.85
2023-03-02T07:46:24.279Z,20.70
2023-03-02T07:48:51.573Z,22.38
2023-03-02T07:51:18.416Z,26.65
2023-03-02T07:53:45.225Z,20.65
2023-03-02T07:56:12.545Z,26.77
2023-03-02T07:58:39.937Z,19.83
2023-03-02T08:01:06.916Z,20.50
2023-03-02T08:03:33.937Z,17.23
2023-03-02T08:06:09.006Z,14.00
2023-03-02T08:08:37.129Z,15.52
2023-03-02T08:11:10.260Z,15.10
2023-03-02T08:13:37.896Z,14.27
2023-03-02T08:16:07.503Z,17.17
2023-03-02T08:18:34.804Z,22.23
2023-03-02T08:21:02.212Z,21.88
2023-03-02T08:23:29.624Z,23.15
2023-03-02T08:25:56.654Z,20.42
2023-03-02T08:28:24.061Z,20.98
2023-03-02T08:31:01.461Z,18.35
2023-03-02T08:33:30.360Z,15.80
2023-03-02T08:36:01.448Z,17.67
2023-03-02T08:38:29.976Z,21.98
2023-03-02T08:41:02.252Z,16.02
2023-03-02T08:43:29.052Z,19.60
2023-03-02T08:45:57.976Z,19.73
2023-03-02T08:48:27.076Z,16.83
2023-03-02T08:51:02.417Z,26.83
2023-03-02T08:53:32.198Z,16.95
2023-03-02T08:55:59.051Z,22.90
2023-03-02T08:58:26.423Z,21.17
2023-03-02T09:00:53.445Z,18.20
2023-03-02T09:03:20.433Z,20.63
2023-03-02T09:05:47.328Z,25.00
2023-03-02T09:08:14.667Z,18.45
2023-03-02T09:10:41.997Z,18.17
2023-03-02T09:13:08.841Z,21.45
2023-03-02T09:15:35.681Z,21.38
2023-03-02T09:18:02.556Z,22.77
2023-03-02T09:20:29.511Z,27.20
2023-03-02T09:22:56.298Z,20.67
2023-03-02T09:25:23.101Z,22.85
2023-03-02T09:27:50.337Z,20.23
2023-03-02T09:30:17.369Z,21.75
2023-03-02T09:32:44.434Z,25.92
2023-03-02T09:35:11.640Z,24.98
2023-03-02T09:37:39.064Z,26.27
2023-03-02T09:40:23.552Z,27.45
2023-03-02T09:43:03.985Z,27.58
2023-03-02T09:45:52.483Z,24.60
2023-03-02T09:48:28.388Z,27.48
2023-03-02T09:51:01.276Z,31.92
2023-03-02T09:53:35.156Z,38.92
2023-03-02T09:56:03.025Z,35.42
2023-03-02T09:58:36.299Z,31.35
2023-03-02T10:01:12.055Z,20.88
2023-03-02T10:03:48.032Z,26.05
2023-03-02T10:06:15.051Z,24.45
2023-03-02T10:08:43.420Z,23.92
2023-03-02T10:11:17.264Z,23.80
2023-03-02T10:14:06.906Z,26.48
2023-03-02T10:17:18.528Z,20.98
2023-03-02T10:19:52.621Z,30.75
2023-03-02T10:22:25.455Z,31.73
2023-03-02T10:25:12.523Z,25.50
2023-03-02T10:27:43.013Z,27.38
2023-03-02T10:30:33.922Z,26.30
2023-03-02T10:33:09.627Z,25.23
2023-03-02T10:35:38.037Z,27.70
2023-03-02T10:38:25.777Z,28.80
2023-03-02T10:41:06.578Z,25.08
2023-03-02T10:43:44.419Z,21.10
2023-03-02T10:46:12.895Z,21.45
2023-03-02T10:49:01.345Z,13.02
2023-03-02T10:51:29.312Z,13.23
2023-03-02T10:54:14.917Z,10.90
2023-03-02T10:56:48.578Z,10.80
2023-03-02T10:59:47.436Z,14.95
2023-03-02T11:02:23.830Z,13.30
2023-03-02T11:05:21.862Z,8.95
2023-03-02T11:07:57.750Z,13.85
2023-03-02T11:10:38.435Z,13.75
2023-03-02T11:13:24.168Z,12.20
2023-03-02T11:15:53.820Z,13.63
2023-03-02T11:18:52.788Z,10.23
2023-03-02T11:21:35.737Z,17.33
2023-03-02T11:24:24.205Z,15.60
2023-03-02T11:27:02.973Z,17.50
2023-03-02T11:29:38.112Z,12.57
2023-03-02T11:32:34.575Z,10.30
2023-03-02T11:35:09.748Z,10.77
2023-03-02T11:37:45.289Z,15.77
2023-03-02T11:40:36.790Z,13.50
2023-03-02T11:43:06.934Z,10.18
2023-03-02T11:45:38.079Z,8.20
2023-03-02T11:48:11.022Z,10.73
2023-03-02T11:50:50.371Z,11.38
2023-03-02T11:53:19.504Z,7.70
2023-03-02T11:55:49.573Z,9.00
2023-03-02T11:58:26.936Z,12.13
2023-03-02T12:00:55.417Z,8.88
2023-03-02T12:03:36.736Z,11.40
2023-03-02T12:06:15.498Z,8.02
2023-03-02T12:08:46.428Z,8.95
2023-03-02T12:11:19.390Z,9.57
2023-03-02T12:13:59.064Z,11.13
2023-03-02T12:16:39.252Z,8.93
2023-03-02T12:19:16.710Z,9.50
2023-03-02T12:21:55.718Z,8.82
2023-03-02T12:24:31.668Z,11.90
2023-03-02T12:27:28.257Z,9.15
2023-03-02T12:30:31.607Z,9.35
2023-03-02T12:33:01.819Z,9.80
2023-03-02T12:35:32.248Z,9.73
2023-03-02T12:38:18.203Z,14.02
2023-03-02T12:41:13.444Z,10.90
2023-03-02T12:44:07.354Z,12.38
2023-03-02T12:46:36.803Z,13.07
2023-03-02T12:49:35.623Z,7.13
2023-03-02T12:52:36.598Z,10.90
2023-03-02T12:55:17.233Z,10.65
2023-03-02T12:57:53.123Z,11.57
2023-03-02T13:00:30.243Z,9.23
2023-03-02T13:02:58.528Z,12.55
2023-03-02T13:05:29.163Z,18.30
2023-03-02T13:08:04.714Z,11.32
2023-03-02T13:10:40.423Z,15.57
2023-03-02T13:13:43.909Z,16.83
2023-03-02T13:16:23.907Z,13.95
2023-03-02T13:18:57.013Z,10.43
2023-03-02T13:21:37.778Z,10.30
2023-03-02T13:24:25.091Z,12.75
2023-03-02T13:27:04.168Z,11.98
2023-03-02T13:29:32.111Z,13.02
2023-03-02T13:32:25.184Z,20.90
2023-03-02T13:35:00.030Z,17.23
2023-03-02T13:37:44.002Z,11.43
2023-03-02T13:40:24.251Z,12.75
2023-03-02T13:42:51.396Z,16.02
2023-03-02T13:45:24.106Z,14.77
2023-03-02T13:47:51.809Z,16.67
2023-03-02T13:50:30.618Z,23.20
2023-03-02T13:53:05.427Z,19.77
2023-03-02T13:55:32.864Z,26.50
2023-03-02T13:58:00.419Z,24.92
2023-03-02T14:00:35.437Z,15.02
2023-03-02T14:03:02.574Z,12.45
2023-03-02T14:05:35.376Z,17.35
2023-03-02T14:08:03.042Z,15.45
2023-03-02T14:10:29.926Z,15.85
2023-03-02T14:13:05.546Z,15.70
2023-03-02T14:15:34.219Z,21.75
2023-03-02T14:18:01.547Z,18.60
2023-03-02T14:20:28.367Z,19.92
2023-03-02T14:22:55.574Z,13.70
2023-03-02T14:25:22.784Z,21.13
2023-03-02T14:27:49.725Z,21.52
2023-03-02T14:30:19.904Z,19.88
2023-03-02T14:32:47.171Z,22.80
2023-03-02T14:35:16.609Z,15.23
2023-03-02T14:37:46.987Z,18.75
2023-03-02T14:40:21.421Z,20.42
2023-03-02T14:42:48.787Z,20.05
2023-03-02T14:45:16.651Z,20.70
2023-03-02T14:47:43.484Z,21.75
2023-03-02T14:50:11.787Z,20.00
2023-03-02T14:52:45.552Z,19.80
2023-03-02T14:55:28.328Z,23.23
2023-03-02T14:57:58.786Z,23.58
2023-03-02T15:00:26.883Z,27.48
2023-03-02T15:02:54.140Z,24.70
2023-03-02T15:05:21.367Z,24.92
2023-03-02T15:07:49.109Z,24.38
2023-03-02T15:10:19.566Z,27.25
2023-03-02T15:12:46.591Z,23.05
2023-03-02T15:15:14.093Z,21.00
2023-03-02T15:17:41.695Z,23.08
2023-03-02T15:20:13.432Z,26.15
2023-03-02T15:22:40.663Z,27.58
2023-03-02T15:25:08.295Z,25.55
2023-03-02T15:27:35.058Z,40.70
2023-03-02T15:30:01.937Z,36.22
2023-03-02T15:32:28.830Z,28.27
2023-03-02T15:34:55.878Z,26.98
2023-03-02T15:37:22.769Z,25.65
2023-03-02T15:39:54.814Z,28.25
2023-03-02T15:42:22.634Z,25.17
2023-03-02T15:44:49.495Z,25.92
2023-03-02T15:47:16.711Z,16.80
2023-03-02T15:49:43.644Z,13.02
2023-03-02T15:52:12.056Z,16.63
2023-03-02T15:54:39.191Z,18.88
2023-03-02T15:57:07.017Z,14.82
2023-03-02T15:59:33.777Z,14.15
2023-03-02T16:02:02.432Z,14.35
2023-03-02T16:04:31.188Z,30.65
2023-03-02T16:06:59.123Z,17.33
2023-03-02T16:09:28.913Z,12.43
2023-03-02T16:11:56.233Z,18.67
2023-03-02T16:14:23.720Z,18.15
2023-03-02T16:16:51.669Z,12.25
2023-03-02T16:19:20.237Z,21.13
2023-03-02T16:21:47.991Z,23.50
2023-03-02T16:24:16.983Z,19.40
2023-03-02T16:26:44.932Z,22.83
2023-03-02T16:29:13.091Z,19.75
2023-03-02T16:31:40.987Z,23.90
2023-03-02T16:34:09.588Z,26.73
2023-03-02T16:36:38.466Z,18.20
2023-03-02T16:39:06.518Z,15.77
2023-03-02T16:41:33.752Z,28.55
2023-03-02T16:44:01.161Z,28.08
2023-03-02T16:46:30.624Z,25.58
2023-03-02T16:48:58.468Z,20.77
2023-03-02T16:51:26.001Z,18.92
2023-03-02T16:53:52.865Z,17.13
2023-03-02T16:56:19.909Z,19.95
2023-03-02T16:58:46.906Z,14.23
2023-03-02T17:01:17.310Z,14.32
2023-03-02T17:03:44.575Z,25.38
2023-03-02T17:06:13.884Z,17.30
2023-03-02T17:08:40.879Z,15.30
2023-03-02T17:11:08.227Z,14.93
2023-03-02T17:13:35.626Z,19.23
2023-03-02T17:16:02.653Z,22.95
2023-03-02T17:18:30.054Z,18.35
2023-03-02T17:20:58.769Z,15.93
2023-03-02T17:23:27.284Z,14.10
2023-03-02T17:25:56.090Z,18.45
2023-03-02T17:28:23.735Z,14.00
2023-03-02T17:30:50.622Z,14.60
2023-03-02T17:33:18.252Z,12.25
2023-03-02T17:35:46.368Z,9.80
2023-03-02T17:38:15.096Z,13.60
2023-03-02T17:40:42.699Z,11.43
2023-03-02T17:43:09.815Z,10.82
2023-03-02T17:45:36.780Z,12.32
2023-03-02T17:48:04.165Z,16.00
2023-03-02T17:50:31.849Z,36.67
2023-03-02T17:52:59.895Z,29.10
2023-03-02T17:55:27.181Z,32.72
2023-03-02T17:57:54.496Z,31.17
2023-03-02T18:00:22.327Z,32.30
2023-03-02T18:02:49.972Z,35.08
2023-03-02T18:05:17.195Z,37.20
2023-03-02T18:07:44.045Z,56.15
2023-03-02T18:10:11.778Z,42.05
2023-03-02T18:12:39.045Z,44.67
2023-03-02T18:15:06.626Z,47.80
2023-03-02T18:17:33.514Z,58.30
2023-03-02T18:20:00.305Z,41.90
2023-03-02T18:22:27.648Z,48.63
2023-03-02T18:24:54.484Z,57.42
2023-03-02T18:27:21.350Z,53.00
2023-03-02T18:29:48.169Z,60.58
2023-03-02T18:32:15.027Z,40.38
2023-03-02T18:34:42.496Z,51.50
2023-03-02T18:37:09.763Z,45.00
2023-03-02T18:39:37.873Z,45.00
2023-03-02T18:42:06.277Z,48.05
2023-03-02T18:44:33.907Z,40.97
2023-03-02T18:47:02.159Z,36.78
2023-03-02T18:49:30.132Z,45.95
2023-03-02T18:51:57.072Z,39.50
2023-03-02T18:54:24.820Z,35.78
2023-03-02T18:56:52.042Z,34.28
2023-03-02T18:59:19.232Z,42.83
2023-03-02T19:01:47.121Z,44.95
2023-03-02T19:04:14.637Z,39.47
2023-03-02T19:06:42.917Z,44.60
2023-03-02T19:09:10.235Z,54.97
2023-03-02T19:11:37.204Z,55.00
2023-03-02T19:14:04.141Z,42.58
2023-03-02T19:16:31.045Z,31.50
2023-03-02T19:18:57.906Z,25.40
2023-03-02T19:21:25.302Z,39.40
2023-03-02T19:23:52.299Z,27.58
2023-03-02T19:26:19.098Z,34.22
2023-03-02T19:28:46.141Z,34.53
2023-03-02T19:31:13.828Z,32.92
2023-03-02T19:33:42.429Z,35.50
2023-03-02T19:36:10.089Z,34.95
2023-03-02T19:38:44.597Z,29.85
2023-03-02T19:41:15.197Z,28.10
2023-03-02T19:43:42.834Z,28.35
2023-03-02T19:46:12.906Z,30.38
2023-03-02T19:48:40.698Z,35.10
2023-03-02T19:51:09.061Z,32.70
2023-03-02T19:53:38.057Z,35.08
2023-03-02T19:56:08.765Z,34.20
2023-03-02T19:58:36.542Z,29.02
2023-03-02T20:01:04.229Z,30.52
2023-03-02T20:03:31.207Z,26.40
2023-03-02T20:05:58.976Z,26.35
2023-03-02T20:08:25.989Z,43.80
2023-03-02T20:10:53.292Z,31.90
2023-03-02T20:13:20.198Z,26.20
2023-03-02T20:15:47.585Z,24.83
2023-03-02T20:18:18.804Z,25.20
2023-03-02T20:20:47.249Z,30.63
2023-03-02T20:23:15.089Z,23.75
2023-03-02T20:25:42.363Z,22.23
2023-03-02T20:28:12.332Z,23.70
2023-03-02T20:30:44.299Z,24.80
2023-03-02T20:33:12.442Z,25.98
2023-03-02T20:35:41.871Z,23.25
2023-03-02T20:38:16.866Z,21.52
2023-03-02T20:40:44.200Z,30.30
2023-03-02T20:43:11.275Z,31.85
2023-03-02T20:45:38.526Z,24.58
2023-03-02T20:48:06.139Z,25.05
2023-03-02T20:50:35.051Z,22.38
2023-03-02T20:53:03.482Z,24.50
2023-03-02T20:55:30.748Z,22.95
2023-03-02T20:57:57.726Z,21.88
2023-03-02T21:00:27.264Z,24.73
2023-03-02T21:02:54.196Z,32.88
2023-03-02T21:05:21.558Z,26.00
2023-03-02T21:07:52.065Z,21.90
2023-03-02T21:10:24.204Z,19.63
2023-03-02T21:12:51.171Z,20.15
2023-03-02T21:15:20.155Z,20.52
2023-03-02T21:17:47.549Z,25.48
2023-03-02T21:20:16.542Z,31.10
2023-03-02T21:22:45.908Z,23.80
2023-03-02T21:25:13.095Z,20.92
2023-03-02T21:27:41.140Z,23.35
2023-03-02T21:30:10.155Z,23.65
2023-03-02T21:32:45.591Z,20.88
2023-03-02T21:35:15.221Z,23.92
2023-03-02T21:37:43.470Z,35.80
2023-03-02T21:40:14.938Z,34.65
2023-03-02T21:42:42.535Z,29.80
2023-03-02T21:45:10.411Z,27.02
2023-03-02T21:47:39.521Z,28.85
2023-03-02T21:50:07.433Z,30.13
2023-03-02T21:52:34.295Z,33.40
2023-03-02T21:55:01.125Z,36.47
2023-03-02T21:57:28.008Z,35.00
2023-03-02T21:59:54.802Z,33.38
2023-03-02T22:02:22.115Z,36.00
2023-03-02T22:04:49.507Z,28.90
2023-03-02T22:07:16.433Z,22.83
2023-03-02T22:09:43.248Z,25.30
2023-03-02T22:12:14.572Z,25.05
2023-03-02T22:14:42.084Z,24.92
2023-03-02T22:17:21.542Z,21.45
2023-03-02T22:19:49.738Z,25.38
2023-03-02T22:22:26.091Z,24.02
2023-03-02T22:24:54.579Z,28.75
2023-03-02T22:27:29.712Z,25.65
2023-03-02T22:29:59.349Z,27.58
2023-03-02T22:32:44.565Z,24.33
2023-03-02T22:35:25.317Z,25.83
2023-03-02T22:38:02.317Z,26.88
2023-03-02T22:40:32.144Z,27.80
2023-03-02T22:43:19.148Z,28.33
2023-03-02T22:45:46.013Z,28.20
2023-03-02T22:48:18.646Z,27.35
2023-03-02T22:50:47.245Z,31.10
2023-03-02T22:53:29.976Z,28.58
2023-03-02T22:55:58.114Z,34.10
2023-03-02T22:58:55.919Z,32.25
2023-03-02T23:04:25.927Z,28.67
2023-03-02T23:06:55.002Z,31.48
2023-03-02T23:09:31.234Z,32.33
2023-03-02T23:12:01.773Z,29.33
2023-03-02T23:14:36.930Z,31.23
2023-03-02T23:17:14.792Z,30.65
2023-03-02T23:19:41.768Z,30.90
2023-03-02T23:22:09.554Z,26.65
2023-03-02T23:24:36.902Z,26.10
2023-03-02T23:27:04.242Z,22.95
2023-03-02T23:29:31.126Z,31.98
2023-03-02T23:31:58.461Z,25.92
2023-03-02T23:34:26.123Z,27.77
2023-03-02T23:36:53.394Z,29.67
2023-03-02T23:39:20.545Z,33.83
2023-03-02T23:41:47.712Z,34.10
2023-03-02T23:44:14.851Z,29.27
2023-03-02T23:46:41.648Z,29.42
2023-03-02T23:49:08.597Z,23.65
2023-03-02T23:51:35.656Z,26.70
2023-03-02T23:54:04.686Z,25.30
2023-03-02T23:56:32.234Z,22.50
2023-03-02T23:58:59.912Z,25.88
